Impacts TAF Board
For situational awareness. Not to be used for flight planning purposes.
IDs:

KGRK - Killeen-Ft Hood Rgnl, TX, US

Issued at 2048 UTC 21 May 2022
Updated at 2231 UTC 21 May 2022
Potential Impact None Slight Moderate High
Time2156Z 21/23Z 22/00Z 22/01Z 22/02Z 22/03Z 22/04Z 22/05Z 22/06Z 22/07Z 22/08Z 22/09Z 22/10Z 22/11Z>>
Type OBS PRVL
  [TEMP]  
PRVL
  [TEMP]  
PRVL PRVL
  [TEMP]  
PRVL
  [TEMP]  
PRVL
  [TEMP]  
PRVL PRVL PRVL PRVL PRVL PRVL PRVL
VIS 10 2.98
  [0.99]  
2.98
  [0.99]  
2.98 >6
  [>6]  
>6
  [>6]  
>6
  [>6]  
>6 >6 >6 >6 >6 >6 >6
CIG -- 30
  [25]  
30
  [25]  
30 15
  [15]  
15
  [15]  
15
  [15]  
15 15 15 15 15 15 15
Cover FEW BKN
  [BKN]  
BKN
  [BKN]  
BKN BKN
  [BKN]  
BKN
  [BKN]  
BKN
  [BKN]  
BKN BKN BKN BKN BKN BKN BKN
FltCat VFR IFR
  [LIFR]  
IFR
  [LIFR]  
IFR MVFR
  [MVFR]  
MVFR
  [MVFR]  
MVFR
  [MVFR]  
MVFR MVFR MVFR MVFR MVFR MVFR MVFR
WX -- SHRA
  [TSRA TSGR]  
SHRA
  [TSRA TSGR]  
SHRA NSW
  [--]  
NSW
  [--]  
NSW
  [--]  
NSW NSW NSW NSW NSW NSW NSW
WDir 120 110
[270]
110
[270]
110 20
[20]
20
[20]
20
[20]
20 20 20 20 20 20 20
WSpd 9 10
  [30]  
10
  [30]  
10 15
  [15]  
15
  [15]  
15
  [15]  
15 15 15 15 15 15 15
WGst -- --
  [45]  
--
  [45]  
-- 20
  [25]  
20
  [25]  
20
  [25]  
20 20 20 20 20 20 20
WSHgt -- --
[--]
--
[--]
-- --
[--]
--
[--]
--
[--]
-- -- -- -- -- -- --
WSDir -- --
[--]
--
[--]
-- --
[--]
--
[--]
--
[--]
-- -- -- -- -- -- --
WSSpd -- --
[--]
--
[--]
-- --
[--]
--
[--]
--
[--]
-- -- -- -- -- -- --
Raw TAF
TAF KGRK 212048Z 2121/2303 11010KT 4800 SHRA BKN030 QNH2981INS
  TEMPO 2121/2201 27030G45KT 1600 TSRAGR BKN025CB
  BECMG 2202/2203 02015G20KT 9999 NSW BKN015 QNH2991INS
  TEMPO 2202/2205 02015G25KT TX34/2121Z TN19/2208Z


Raw METAR
KGRK 212156Z AUTO 12009KT 10SM FEW130 33/19 A2983 RMK AO2 LTG DSNT NW SLP089 T03290194 $
KGRK 212056Z AUTO 11008KT 10SM FEW060 FEW350 35/19 A2982 RMK AO2 LTG DSNT W SLP085 T03470191 57008 $
KGRK 211956Z AUTO 11003KT 10SM FEW050 FEW250 SCT290 SCT320 BKN350 34/19 A2983 RMK AO2 SLP088 T03400192 $

METAR Board
Radar Display
Forecast Discussion
For situational awareness. Not to be used for flight planning purposes.